Terminal Aerodrome Forecast
Issued by NWS Omaha/Valley, NE

Current Version | Previous Version | Text Only | Print | Product List | Glossary On
Versions: 1 2 3 4 5 6 7 8 9 10 11 12 13 14 15 16 17 18 19 20 21 22 23 24 25 26 27 28 29 30 31 32 33 34 35 36 37 38 39 40 41 42 43 44 45 46 47 48 49 50
000
FTUS43 KOAX 291349 AAB
TAFOMA
TAF AMD
KOMA 291349Z 2914/3012 12006KT P6SM SCT015 OVC110
      TEMPO 2914/2916 5SM -SHRA BR BKN015
     FM291600 17009KT P6SM BKN120
      TEMPO 2916/2920 3SM TSRA BKN030CB
     FM300000 29004KT P6SM OVC100
     FM300200 33004KT P6SM BKN250
     FM301000 34005KT 4SM BR SCT250=

USA.gov is the U.S. government's official web portal to all federal, state and local government web resources and services.